Gould, Oklahoma
Current Conditions -  °F | °C
As of 7:55 PM on Saturday 22 Nov 2014 (Local Time) from KAXS Reporting Station
Clear Clear  
Wind Chill: 55°   Ceiling: Unl
Heat Index: 55°   Visibility: 10mi
Dew Point: 52°   Wind: 13mph
Humidity: 92%   Direction: 130°SE
Pressure: 29.76"   Gusts: NA
Location:  34.67°N, 99.77°W
Report Text: KAXS 230155Z AUTO 13011KT 10SM CLR 13/11 A2976 RMK AO2 T01250112
Loading
Personal Weather Stations






























Interactive Weather Map New forecast layout! Learn more

10-Day Weather Forecast

Advertisements
Track Severe Weather on mobile